createdAt,value
2022-08-17T00:00:33.219Z,91.64
2022-08-17T00:03:05.732Z,91.92
2022-08-17T00:05:35.704Z,92.18
2022-08-17T00:08:04.056Z,91.59
2022-08-17T00:10:33.571Z,92.04
2022-08-17T00:13:03.976Z,92.43
2022-08-17T00:15:32.162Z,92.20
2022-08-17T00:18:00.338Z,92.18
2022-08-17T00:20:34.725Z,92.60
2022-08-17T00:23:07.234Z,93.07
2022-08-17T00:25:36.783Z,93.15
2022-08-17T00:28:06.243Z,93.07
2022-08-17T00:30:53.196Z,93.46
2022-08-17T00:33:23.981Z,93.68
2022-08-17T00:35:52.329Z,94.40
2022-08-17T00:38:20.658Z,93.49
2022-08-17T00:40:51.695Z,93.64
2022-08-17T00:43:22.439Z,93.40
2022-08-17T00:45:50.665Z,93.74
2022-08-17T00:48:30.211Z,94.01
2022-08-17T00:51:05.261Z,94.50
2022-08-17T00:53:34.209Z,94.77
2022-08-17T00:56:04.900Z,94.75
2022-08-17T00:58:36.472Z,94.29
2022-08-17T01:01:06.017Z,94.88
2022-08-17T01:03:34.278Z,94.67
2022-08-17T01:06:02.476Z,95.30
2022-08-17T01:08:31.248Z,95.35
2022-08-17T01:11:04.182Z,95.11
2022-08-17T01:13:40.722Z,94.91
2022-08-17T01:16:13.293Z,95.71
2022-08-17T01:18:42.266Z,95.93
2022-08-17T01:21:12.344Z,96.16
2022-08-17T01:23:42.538Z,96.22
2022-08-17T01:26:10.615Z,96.41
2022-08-17T01:28:53.850Z,96.12
2022-08-17T01:31:23.866Z,96.98
2022-08-17T01:33:52.016Z,96.77
2022-08-17T01:36:20.450Z,96.86
2022-08-17T01:38:49.969Z,96.60
2022-08-17T01:41:18.225Z,97.24
2022-08-17T01:43:47.404Z,96.93
2022-08-17T01:46:16.714Z,97.44
2022-08-17T01:48:47.579Z,96.94
2022-08-17T01:51:16.402Z,97.21
2022-08-17T01:53:46.732Z,97.24
2022-08-17T01:56:17.967Z,97.42
2022-08-17T01:58:46.281Z,97.20
2022-08-17T02:01:17.711Z,97.81
2022-08-17T02:03:59.193Z,97.61
2022-08-17T02:06:29.654Z,98.10
2022-08-17T02:09:03.152Z,98.40
2022-08-17T02:11:33.444Z,99.08
2022-08-17T02:14:04.056Z,99.43
2022-08-17T02:16:37.565Z,99.74
2022-08-17T02:19:07.204Z,99.48
2022-08-17T02:21:35.368Z,98.86
2022-08-17T02:24:03.773Z,98.67
2022-08-17T02:26:33.392Z,99.22
2022-08-17T02:29:01.500Z,99.99
2022-08-17T02:31:31.239Z,100.00
2022-08-17T02:34:04.055Z,100.00
2022-08-17T02:36:33.911Z,100.00
2022-08-17T02:39:02.519Z,99.98
2022-08-17T02:41:31.049Z,100.00
2022-08-17T02:44:00.860Z,100.00
2022-08-17T02:46:29.216Z,100.00
2022-08-17T02:48:57.584Z,100.00
2022-08-17T02:51:25.784Z,100.00
2022-08-17T02:54:39.106Z,100.00
2022-08-17T02:56:42.088Z,100.00
2022-08-17T02:59:11.955Z,100.00
2022-08-17T03:01:40.589Z,100.00
2022-08-17T03:04:08.868Z,100.00
2022-08-17T03:06:37.546Z,100.00
2022-08-17T03:09:05.874Z,100.00
2022-08-17T03:11:34.370Z,100.00
2022-08-17T03:14:02.505Z,100.00
2022-08-17T03:16:31.980Z,100.00
2022-08-17T03:19:01.591Z,100.00
2022-08-17T03:21:29.723Z,100.00
2022-08-17T03:23:58.269Z,100.00
2022-08-17T03:26:29.840Z,100.00
2022-08-17T03:28:58.056Z,100.00
2022-08-17T03:31:26.265Z,100.00
2022-08-17T03:33:56.491Z,100.00
2022-08-17T03:36:24.808Z,100.00
2022-08-17T03:38:53.391Z,100.00
2022-08-17T03:41:23.246Z,100.00
2022-08-17T03:43:51.445Z,100.00
2022-08-17T03:46:36.798Z,100.00
2022-08-17T03:49:24.369Z,100.00
2022-08-17T03:52:10.181Z,100.00
2022-08-17T03:54:55.403Z,100.00
2022-08-17T03:57:23.559Z,100.00
2022-08-17T03:59:51.654Z,100.00
2022-08-17T04:02:21.068Z,100.00
2022-08-17T04:04:51.357Z,100.00
2022-08-17T04:07:19.932Z,100.00
2022-08-17T04:09:48.115Z,100.00
2022-08-17T04:12:16.338Z,100.00
2022-08-17T04:14:52.149Z,100.00
2022-08-17T04:17:22.996Z,100.00
2022-08-17T04:19:53.098Z,100.00
2022-08-17T04:22:32.089Z,100.00
2022-08-17T04:25:09.148Z,100.00
2022-08-17T04:27:37.422Z,100.00
2022-08-17T04:30:07.463Z,100.00
2022-08-17T04:33:03.605Z,100.00
2022-08-17T04:35:36.816Z,100.00
2022-08-17T04:38:05.186Z,100.00
2022-08-17T04:40:50.560Z,100.00
2022-08-17T04:43:19.782Z,100.00
2022-08-17T04:45:55.148Z,100.00
2022-08-17T04:48:29.770Z,100.00
2022-08-17T04:51:10.022Z,100.00
2022-08-17T04:53:39.615Z,100.00
2022-08-17T04:56:08.271Z,100.00
2022-08-17T04:58:44.716Z,100.00
2022-08-17T05:01:13.542Z,100.00
2022-08-17T05:03:42.157Z,100.00
2022-08-17T05:06:11.954Z,100.00
2022-08-17T05:08:40.264Z,100.00
2022-08-17T05:11:08.502Z,100.00
2022-08-17T05:13:36.650Z,100.00
2022-08-17T05:16:05.325Z,100.00
2022-08-17T05:18:33.707Z,100.00
2022-08-17T05:21:01.854Z,100.00
2022-08-17T05:23:41.875Z,100.00
2022-08-17T05:26:21.970Z,100.00
2022-08-17T05:28:57.201Z,100.00
2022-08-17T05:31:28.817Z,100.00
2022-08-17T05:33:57.064Z,100.00
2022-08-17T05:36:41.622Z,100.00
2022-08-17T05:39:15.790Z,100.00
2022-08-17T05:41:49.094Z,100.00
2022-08-17T05:44:17.652Z,99.30
2022-08-17T05:46:48.810Z,99.97
2022-08-17T05:49:17.400Z,100.00
2022-08-17T05:52:14.882Z,99.17
2022-08-17T05:54:56.288Z,98.27
2022-08-17T05:57:56.106Z,95.34
2022-08-17T06:00:30.877Z,93.26
2022-08-17T06:03:08.575Z,92.98
2022-08-17T06:05:46.276Z,92.90
2022-08-17T06:08:18.743Z,91.90
2022-08-17T06:10:53.292Z,91.04
2022-08-17T06:13:24.219Z,89.29
2022-08-17T06:15:57.677Z,86.18
2022-08-17T06:18:27.993Z,86.14
2022-08-17T06:20:57.709Z,84.18
2022-08-17T06:23:27.637Z,83.77
2022-08-17T06:26:03.867Z,83.42
2022-08-17T06:28:37.204Z,85.29
2022-08-17T06:31:07.541Z,85.39
2022-08-17T06:33:37.402Z,84.71
2022-08-17T06:36:15.860Z,84.80
2022-08-17T06:38:47.915Z,83.71
2022-08-17T06:41:19.841Z,81.12
2022-08-17T06:43:52.261Z,79.38
2022-08-17T06:46:23.261Z,79.00
2022-08-17T06:48:58.290Z,77.52
2022-08-17T06:51:29.411Z,74.75
2022-08-17T06:54:01.325Z,73.04
2022-08-17T06:56:54.251Z,70.84
2022-08-17T06:59:25.491Z,66.96
2022-08-17T07:01:56.466Z,68.24
2022-08-17T07:04:27.373Z,66.63
2022-08-17T07:06:58.270Z,65.65
2022-08-17T07:09:29.572Z,64.58
2022-08-17T07:12:00.638Z,64.12
2022-08-17T07:14:36.602Z,62.69
2022-08-17T07:17:08.083Z,61.59
2022-08-17T07:19:38.254Z,61.93
2022-08-17T07:22:14.093Z,61.61
2022-08-17T07:24:47.743Z,60.73
2022-08-17T07:27:21.330Z,57.48
2022-08-17T07:29:53.724Z,56.33
2022-08-17T07:32:25.453Z,54.38
2022-08-17T07:35:15.319Z,52.48
2022-08-17T07:37:45.585Z,52.29
2022-08-17T07:40:19.639Z,50.46
2022-08-17T07:43:19.930Z,50.26
2022-08-17T07:46:33.309Z,49.32
2022-08-17T07:49:33.693Z,50.47
2022-08-17T07:52:24.856Z,49.25
2022-08-17T07:54:51.922Z,48.51
2022-08-17T07:57:34.594Z,47.60
2022-08-17T08:00:32.480Z,47.89
2022-08-17T08:03:03.720Z,46.65
2022-08-17T08:05:50.540Z,46.34
2022-08-17T08:08:26.870Z,44.87
2022-08-17T08:11:08.328Z,45.63
2022-08-17T08:13:40.510Z,44.14
2022-08-17T08:16:27.103Z,44.37
2022-08-17T08:18:57.957Z,44.81
2022-08-17T08:21:34.436Z,43.63
2022-08-17T08:24:17.033Z,43.66
2022-08-17T08:26:47.708Z,45.49
2022-08-17T08:29:28.272Z,43.97
2022-08-17T08:32:02.624Z,42.97
2022-08-17T08:35:01.386Z,43.45
2022-08-17T08:37:42.492Z,42.18
2022-08-17T08:40:16.238Z,43.04
2022-08-17T08:42:46.828Z,42.80
2022-08-17T08:45:16.982Z,42.35
2022-08-17T08:47:57.468Z,42.07
2022-08-17T08:50:40.425Z,41.06
2022-08-17T08:53:14.663Z,41.84
2022-08-17T08:55:49.368Z,40.78
2022-08-17T08:58:30.653Z,42.48
2022-08-17T09:01:08.977Z,41.32
2022-08-17T09:04:18.330Z,42.46
2022-08-17T09:06:50.882Z,41.61
2022-08-17T09:09:25.496Z,40.51
2022-08-17T09:12:02.742Z,41.28
2022-08-17T09:14:44.877Z,39.16
2022-08-17T09:17:16.421Z,40.10
2022-08-17T09:19:49.581Z,39.62
2022-08-17T09:22:25.218Z,40.18
2022-08-17T09:24:57.286Z,38.41
2022-08-17T09:27:28.383Z,38.78
2022-08-17T09:29:58.904Z,38.33
2022-08-17T09:32:34.244Z,37.25
2022-08-17T09:35:10.575Z,37.29
2022-08-17T09:37:44.314Z,37.19
2022-08-17T09:40:15.165Z,35.77
2022-08-17T09:42:46.828Z,35.10
2022-08-17T09:45:24.900Z,35.28
2022-08-17T09:47:55.236Z,37.12
2022-08-17T09:51:03.388Z,33.90
2022-08-17T09:53:17.575Z,34.55
2022-08-17T09:55:58.041Z,34.86
2022-08-17T09:58:30.954Z,34.21
2022-08-17T10:01:02.129Z,34.46
2022-08-17T10:03:39.718Z,33.85
2022-08-17T10:06:13.393Z,33.61
2022-08-17T10:08:45.168Z,34.76
2022-08-17T10:11:20.211Z,33.75
2022-08-17T10:13:52.941Z,32.75
2022-08-17T10:16:24.488Z,33.08
2022-08-17T10:19:07.631Z,31.56
2022-08-17T10:22:01.492Z,32.66
2022-08-17T10:25:21.068Z,31.66
2022-08-17T10:27:52.331Z,31.08
2022-08-17T10:30:22.158Z,31.62
2022-08-17T10:32:55.211Z,30.44
2022-08-17T10:35:43.132Z,31.81
2022-08-17T10:38:38.323Z,31.18
2022-08-17T10:41:19.171Z,31.30
2022-08-17T10:44:37.041Z,32.05
2022-08-17T10:46:52.411Z,33.79
2022-08-17T10:49:25.844Z,32.10
2022-08-17T10:51:54.717Z,32.43
2022-08-17T10:54:38.717Z,35.48
2022-08-17T10:57:39.011Z,32.40
2022-08-17T11:00:14.926Z,34.06
2022-08-17T11:02:49.980Z,33.94
2022-08-17T11:05:43.486Z,32.19
2022-08-17T11:08:42.507Z,33.59
2022-08-17T11:11:20.835Z,34.68
2022-08-17T11:13:52.774Z,34.07
2022-08-17T11:16:39.149Z,30.96
2022-08-17T11:19:32.700Z,30.13
2022-08-17T11:22:18.387Z,30.91
2022-08-17T11:24:47.793Z,30.58
2022-08-17T11:27:25.993Z,29.80
2022-08-17T11:30:01.579Z,28.88
2022-08-17T11:32:33.885Z,29.90
2022-08-17T11:35:22.216Z,28.39
2022-08-17T11:37:55.069Z,30.58
2022-08-17T11:40:39.058Z,30.29
2022-08-17T11:43:30.150Z,29.94
2022-08-17T11:46:08.251Z,31.17
2022-08-17T11:48:56.247Z,30.52
2022-08-17T11:51:34.561Z,30.81
2022-08-17T11:56:59.072Z,31.45
2022-08-17T11:59:59.745Z,33.28
2022-08-17T12:02:38.856Z,31.05
2022-08-17T12:05:28.771Z,30.52
2022-08-17T12:08:15.272Z,31.04
2022-08-17T12:10:51.623Z,29.79
2022-08-17T12:13:20.082Z,30.66
2022-08-17T12:15:52.775Z,30.85
2022-08-17T12:18:22.199Z,29.56
2022-08-17T12:21:00.987Z,30.95
2022-08-17T12:23:35.355Z,31.00
2022-08-17T12:26:05.912Z,30.42
2022-08-17T12:28:35.095Z,28.68
2022-08-17T12:31:05.900Z,30.43
2022-08-17T12:33:34.094Z,30.75
2022-08-17T12:36:04.024Z,31.66
2022-08-17T12:38:35.095Z,30.53
2022-08-17T12:41:25.507Z,29.65
2022-08-17T12:44:01.580Z,30.29
2022-08-17T12:46:33.736Z,29.21
2022-08-17T12:49:15.703Z,29.81
2022-08-17T12:51:45.493Z,29.52
2022-08-17T12:54:24.401Z,29.04
2022-08-17T12:56:52.643Z,29.95
2022-08-17T12:59:28.643Z,30.28
2022-08-17T13:02:00.633Z,29.70
2022-08-17T13:04:29.644Z,28.56
2022-08-17T13:06:59.982Z,27.66
2022-08-17T13:09:36.092Z,28.97
2022-08-17T13:12:09.150Z,27.85
2022-08-17T13:14:37.365Z,28.74
2022-08-17T13:17:12.648Z,29.06
2022-08-17T13:19:48.611Z,28.59
2022-08-17T13:22:16.761Z,28.34
2022-08-17T13:24:53.285Z,29.42
2022-08-17T13:27:21.574Z,30.68
2022-08-17T13:29:53.169Z,30.79
2022-08-17T13:32:26.226Z,30.83
2022-08-17T13:35:12.391Z,30.70
2022-08-17T13:38:01.423Z,29.39
2022-08-17T13:40:37.897Z,30.33
2022-08-17T13:43:06.044Z,29.18
2022-08-17T13:45:39.285Z,28.39
2022-08-17T13:48:13.864Z,28.05
2022-08-17T13:50:43.813Z,28.25
2022-08-17T13:53:22.782Z,27.80
2022-08-17T13:55:52.478Z,27.95
2022-08-17T13:58:21.888Z,28.08
2022-08-17T14:00:51.697Z,28.57
2022-08-17T14:03:21.372Z,28.89
2022-08-17T14:05:50.193Z,29.17
2022-08-17T14:08:18.847Z,28.01
2022-08-17T14:10:47.786Z,29.58
2022-08-17T14:13:18.676Z,27.51
2022-08-17T14:15:55.063Z,29.38
2022-08-17T14:18:37.532Z,28.25
2022-08-17T14:21:14.580Z,29.21
2022-08-17T14:23:54.652Z,27.94
2022-08-17T14:26:23.296Z,28.78
2022-08-17T14:28:54.671Z,28.00
2022-08-17T14:31:25.041Z,28.25
2022-08-17T14:33:54.704Z,28.70
2022-08-17T14:36:22.827Z,30.20
2022-08-17T14:38:51.088Z,28.43
2022-08-17T14:41:22.150Z,28.66
2022-08-17T14:43:51.450Z,28.13
2022-08-17T14:46:19.623Z,27.91
2022-08-17T14:48:48.546Z,27.64
2022-08-17T14:51:18.097Z,27.50
2022-08-17T14:53:46.554Z,28.09
2022-08-17T14:56:14.695Z,26.72
2022-08-17T14:58:43.356Z,26.38
2022-08-17T15:01:12.018Z,27.02
2022-08-17T15:03:41.000Z,26.51
2022-08-17T15:06:09.647Z,26.59
2022-08-17T15:08:39.194Z,27.40
2022-08-17T15:11:07.945Z,26.30
2022-08-17T15:13:52.680Z,25.90
2022-08-17T15:16:21.598Z,26.17
2022-08-17T15:18:50.280Z,26.62
2022-08-17T15:21:18.942Z,26.48
2022-08-17T15:23:48.960Z,25.14
2022-08-17T15:26:17.634Z,26.60
2022-08-17T15:28:48.997Z,26.96
2022-08-17T15:31:32.313Z,26.75
2022-08-17T15:34:00.522Z,27.81
2022-08-17T15:36:29.148Z,27.50
2022-08-17T15:38:59.019Z,28.22
2022-08-17T15:41:28.186Z,27.27
2022-08-17T15:43:56.508Z,27.79
2022-08-17T15:46:25.687Z,27.58
2022-08-17T15:48:55.708Z,27.67
2022-08-17T15:51:26.134Z,27.63
2022-08-17T15:53:55.675Z,28.75
2022-08-17T15:56:25.344Z,28.60
2022-08-17T15:58:54.891Z,28.48
2022-08-17T16:03:01.639Z,28.22
2022-08-17T16:04:29.849Z,28.55
2022-08-17T16:06:58.764Z,28.86
2022-08-17T16:09:26.959Z,29.09
2022-08-17T16:11:56.761Z,29.31
2022-08-17T16:14:30.308Z,30.01
2022-08-17T16:17:02.728Z,29.38
2022-08-17T16:19:30.859Z,29.25
2022-08-17T16:21:59.377Z,29.67
2022-08-17T16:24:27.615Z,30.11
2022-08-17T16:26:57.255Z,30.90
2022-08-17T16:29:25.393Z,31.66
2022-08-17T16:31:54.030Z,32.84
2022-08-17T16:34:22.132Z,33.03
2022-08-17T16:36:55.198Z,33.57
2022-08-17T16:39:26.259Z,32.70
2022-08-17T16:41:54.884Z,32.37
2022-08-17T16:44:25.758Z,31.58
2022-08-17T16:46:54.250Z,32.27
2022-08-17T16:49:35.937Z,32.92
2022-08-17T16:52:07.848Z,33.74
2022-08-17T16:54:36.454Z,34.82
2022-08-17T16:57:05.663Z,35.98
2022-08-17T16:59:41.031Z,35.13
2022-08-17T17:02:15.507Z,36.45
2022-08-17T17:04:48.987Z,36.15
2022-08-17T17:07:25.810Z,36.45
2022-08-17T17:09:55.599Z,37.38
2022-08-17T17:13:01.183Z,36.82
2022-08-17T17:15:18.777Z,38.44
2022-08-17T17:17:50.675Z,38.14
2022-08-17T17:20:21.784Z,38.82
2022-08-17T17:23:01.627Z,39.73
2022-08-17T17:25:31.505Z,39.11
2022-08-17T17:28:02.425Z,39.29
2022-08-17T17:30:34.304Z,41.36
2022-08-17T17:33:04.988Z,40.73
2022-08-17T17:35:34.663Z,41.25
2022-08-17T17:38:05.180Z,41.38
2022-08-17T17:40:36.934Z,42.71
2022-08-17T17:43:34.853Z,42.51
2022-08-17T17:45:57.677Z,43.53
2022-08-17T17:48:35.813Z,43.53
2022-08-17T17:51:09.711Z,43.00
2022-08-17T17:53:43.514Z,43.48
2022-08-17T17:56:19.606Z,43.57
2022-08-17T17:59:03.804Z,44.02
2022-08-17T18:01:42.940Z,44.56
2022-08-17T18:04:21.090Z,44.50
2022-08-17T18:07:15.390Z,45.61
2022-08-17T18:10:01.540Z,45.04
2022-08-17T18:12:36.181Z,45.66
2022-08-17T18:15:21.597Z,46.65
2022-08-17T18:18:22.668Z,46.68
2022-08-17T18:20:54.137Z,47.09
2022-08-17T18:23:28.111Z,47.10
2022-08-17T18:25:56.977Z,46.73
2022-08-17T18:28:26.582Z,46.97
2022-08-17T18:31:12.081Z,48.14
2022-08-17T18:33:42.464Z,48.44
2022-08-17T18:36:11.489Z,48.24
2022-08-17T18:38:40.768Z,49.71
2022-08-17T18:41:20.423Z,49.33
2022-08-17T18:44:00.417Z,49.87
2022-08-17T18:46:30.542Z,50.32
2022-08-17T18:49:01.159Z,51.27
2022-08-17T18:51:40.996Z,51.08
2022-08-17T18:54:17.299Z,52.54
2022-08-17T18:56:49.280Z,52.44
2022-08-17T18:59:28.005Z,52.23
2022-08-17T19:02:10.221Z,53.55
2022-08-17T19:04:59.072Z,52.74
2022-08-17T19:07:29.605Z,54.37
2022-08-17T19:10:00.281Z,54.83
2022-08-17T19:12:33.251Z,54.98
2022-08-17T19:15:01.522Z,54.69
2022-08-17T19:17:35.458Z,55.19
2022-08-17T19:20:09.655Z,55.96
2022-08-17T19:22:46.661Z,55.48
2022-08-17T19:25:17.100Z,56.56
2022-08-17T19:27:49.218Z,56.85
2022-08-17T19:30:27.843Z,56.16
2022-08-17T19:32:57.762Z,56.06
2022-08-17T19:35:30.891Z,56.89
2022-08-17T19:38:04.056Z,57.71
2022-08-17T19:40:52.461Z,57.85
2022-08-17T19:43:24.708Z,58.99
2022-08-17T19:45:59.519Z,59.32
2022-08-17T19:48:35.790Z,61.02
2022-08-17T19:51:07.668Z,59.17
2022-08-17T19:54:03.876Z,60.48
2022-08-17T19:56:32.075Z,61.02
2022-08-17T19:59:02.624Z,61.97
2022-08-17T20:01:35.908Z,61.29
2022-08-17T20:04:08.619Z,61.72
2022-08-17T20:06:40.396Z,61.86
2022-08-17T20:09:15.258Z,62.26
2022-08-17T20:11:46.648Z,62.37
2022-08-17T20:14:16.356Z,63.03
2022-08-17T20:16:44.479Z,62.69
2022-08-17T20:19:24.502Z,62.83
2022-08-17T20:21:56.093Z,63.24
2022-08-17T20:24:30.225Z,63.31
2022-08-17T20:27:00.156Z,63.42
2022-08-17T20:29:37.676Z,65.08
2022-08-17T20:32:25.294Z,64.94
2022-08-17T20:35:17.360Z,65.67
2022-08-17T20:38:02.210Z,65.17
2022-08-17T20:40:35.572Z,64.56
2022-08-17T20:43:37.184Z,64.30
2022-08-17T20:46:13.639Z,62.79
2022-08-17T20:48:43.250Z,62.98
2022-08-17T20:51:27.202Z,63.93
2022-08-17T20:54:27.832Z,65.49
2022-08-17T20:56:57.684Z,65.60
2022-08-17T21:00:18.267Z,66.35
2022-08-17T21:02:47.573Z,65.49
2022-08-17T21:05:30.848Z,67.78
2022-08-17T21:08:00.819Z,66.61
2022-08-17T21:10:36.650Z,66.86
2022-08-17T21:13:46.343Z,68.46
2022-08-17T21:16:32.774Z,68.86
2022-08-17T21:19:07.560Z,68.89
2022-08-17T21:21:41.782Z,69.65
2022-08-17T21:24:16.542Z,69.13
2022-08-17T21:26:51.187Z,70.09
2022-08-17T21:29:31.859Z,69.56
2022-08-17T21:32:23.696Z,70.43
2022-08-17T21:35:28.947Z,71.79
2022-08-17T21:38:00.141Z,72.36
2022-08-17T21:40:29.165Z,72.61
2022-08-17T21:43:00.164Z,71.48
2022-08-17T21:45:31.271Z,71.59
2022-08-17T21:48:12.748Z,71.46
2022-08-17T21:50:42.373Z,72.52
2022-08-17T21:53:10.820Z,72.09
2022-08-17T21:55:39.023Z,72.37
2022-08-17T21:58:13.807Z,73.12
2022-08-17T22:00:44.338Z,72.95
2022-08-17T22:03:24.430Z,72.81
2022-08-17T22:05:52.659Z,73.14
2022-08-17T22:08:23.737Z,74.12
2022-08-17T22:10:52.373Z,73.52
2022-08-17T22:13:23.335Z,73.81
2022-08-17T22:16:15.574Z,73.98
2022-08-17T22:18:58.126Z,73.85
2022-08-17T22:21:26.436Z,74.13
2022-08-17T22:24:05.261Z,74.88
2022-08-17T22:27:00.204Z,74.95
2022-08-17T22:29:57.116Z,75.95
2022-08-17T22:32:37.810Z,75.59
2022-08-17T22:35:40.101Z,76.44
2022-08-17T22:38:26.960Z,76.35
2022-08-17T22:40:56.137Z,75.70
2022-08-17T22:43:26.581Z,75.79
2022-08-17T22:45:58.677Z,76.33
2022-08-17T22:48:27.792Z,77.62
2022-08-17T22:51:04.893Z,76.06
2022-08-17T22:54:04.699Z,76.53
2022-08-17T22:56:50.096Z,76.20
2022-08-17T22:59:35.325Z,76.47
2022-08-17T23:02:22.805Z,78.00
2022-08-17T23:04:53.021Z,77.86
2022-08-17T23:07:21.525Z,77.87
2022-08-17T23:09:50.218Z,78.17
2022-08-17T23:12:22.766Z,77.99
2022-08-17T23:14:52.628Z,78.38
2022-08-17T23:17:22.126Z,79.30
2022-08-17T23:19:50.302Z,78.12
2022-08-17T23:22:18.709Z,78.74
2022-08-17T23:24:49.037Z,79.35
2022-08-17T23:27:17.317Z,79.92
2022-08-17T23:29:47.151Z,79.61
2022-08-17T23:32:16.312Z,81.51
2022-08-17T23:34:48.249Z,79.69
2022-08-17T23:37:16.869Z,80.21
2022-08-17T23:39:45.819Z,81.15
2022-08-17T23:42:15.853Z,80.80
2022-08-17T23:44:44.104Z,82.02
2022-08-17T23:47:12.261Z,81.52
2022-08-17T23:49:41.439Z,81.81
2022-08-17T23:52:12.693Z,82.68
2022-08-17T23:54:44.700Z,82.34
2022-08-17T23:57:13.324Z,82.99
2022-08-17T23:59:43.885Z,83.19
